Time;durP1;ratioP1;P1;durP2;ratioP2;P2;SDS_P1;SDS_P2;PMS_P1;PMS_P2;Temp;Humidity;BMP_temperature;BMP_pressure;BME280_temperature;BME280_humidity;BME280_pressure;Samples;Min_cycle;Max_cycle;Signal;HPM_P1;HPM_P2
2022/09/14 00:00:59;;;;;;;16.15;12.85;;;;;;;16.62;99.63;99792.53;5004044;28;20030;-76
2022/09/14 00:03:24;;;;;;;10.95;9.68;;;;;;;16.54;100.00;99792.84;5004987;28;20084;-76
2022/09/14 00:05:50;;;;;;;12.77;11.27;;;;;;;16.56;100.00;99783.00;5005238;28;20074;-76
2022/09/14 00:08:15;;;;;;;15.88;11.75;;;;;;;16.59;100.00;99787.34;5004087;28;20045;-76
2022/09/14 00:10:42;;;;;;;13.15;11.57;;;;;;;16.62;100.00;99793.38;5017811;28;20448;-76
2022/09/14 00:13:09;;;;;;;13.63;11.25;;;;;;;16.65;100.00;99797.72;5002957;28;20081;-76
2022/09/14 00:15:40;;;;;;;18.20;15.10;;;;;;;16.53;100.00;99788.47;5004455;28;20120;-76
2022/09/14 00:18:08;;;;;;;14.07;11.82;;;;;;;16.44;100.00;99789.72;5005351;28;20029;-76
2022/09/14 00:20:34;;;;;;;19.42;15.77;;;;;;;16.42;100.00;99788.03;5004310;28;20126;-76
2022/09/14 00:22:59;;;;;;;17.70;15.15;;;;;;;16.49;100.00;99783.34;5006217;28;20128;-76
2022/09/14 00:25:27;;;;;;;17.52;15.60;;;;;;;16.49;100.00;99788.66;4999128;28;20077;-76
2022/09/14 00:27:53;;;;;;;14.70;11.55;;;;;;;16.47;100.00;99780.72;5004372;28;20126;-76
2022/09/14 00:30:19;;;;;;;16.50;12.15;;;;;;;16.50;100.00;99777.91;5004228;28;20037;-76
2022/09/14 00:32:44;;;;;;;16.02;11.70;;;;;;;16.47;100.00;99775.41;5005075;28;20037;-76
2022/09/14 00:35:10;;;;;;;17.60;12.93;;;;;;;16.39;100.00;99759.75;5002718;28;20030;-76
2022/09/14 00:37:35;;;;;;;20.60;12.40;;;;;;;16.28;100.00;99759.34;5011184;28;20096;-76
2022/09/14 00:40:02;;;;;;;15.23;12.15;;;;;;;16.25;100.00;99756.81;5006277;28;20042;-76
2022/09/14 00:42:27;;;;;;;13.05;11.70;;;;;;;16.19;100.00;99755.28;5002901;28;20041;-76
2022/09/14 00:44:59;;;;;;;14.75;11.82;;;;;;;16.15;100.00;99760.78;5004459;28;20048;-76
2022/09/14 00:47:25;;;;;;;14.60;9.88;;;;;;;16.10;100.00;99760.09;5007523;28;20045;-76
2022/09/14 00:49:50;;;;;;;14.32;12.60;;;;;;;16.07;100.00;99754.91;5003399;28;20048;-76
2022/09/14 00:52:24;;;;;;;15.07;10.68;;;;;;;16.11;100.00;99762.72;5007782;28;20113;-75
2022/09/14 00:54:59;;;;;;;16.08;12.25;;;;;;;16.09;100.00;99756.56;5004988;28;20129;-76
2022/09/14 00:57:27;;;;;;;14.38;11.45;;;;;;;16.02;100.00;99757.75;5002838;28;20042;-76
2022/09/14 00:59:54;;;;;;;15.88;13.32;;;;;;;16.03;100.00;99753.28;5004126;28;20041;-76
2022/09/14 01:02:21;;;;;;;18.88;15.20;;;;;;;15.96;100.00;99758.00;5004101;28;20042;-76
2022/09/14 01:04:48;;;;;;;16.98;14.15;;;;;;;16.00;100.00;99759.59;5002304;28;20042;-76
2022/09/14 01:07:41;;;;;;;16.17;13.40;;;;;;;16.11;100.00;99754.72;5002198;28;20043;-76
2022/09/14 01:10:21;;;;;;;18.60;15.82;;;;;;;16.05;100.00;99744.31;5002906;28;20516;-76
2022/09/14 01:13:13;;;;;;;16.63;13.45;;;;;;;15.92;100.00;99753.72;5001871;28;20038;-76
2022/09/14 01:15:50;;;;;;;13.48;12.05;;;;;;;15.85;100.00;99747.81;5005341;28;20049;-76
2022/09/14 01:18:27;;;;;;;16.67;14.57;;;;;;;15.91;100.00;99758.19;5003798;28;20121;-76
2022/09/14 01:20:59;;;;;;;14.75;12.82;;;;;;;15.93;100.00;99748.34;5006800;28;20029;-76
2022/09/14 01:23:40;;;;;;;20.58;14.50;;;;;;;15.95;100.00;99748.28;5003229;28;20033;-75
2022/09/14 01:26:30;;;;;;;15.25;13.20;;;;;;;15.97;100.00;99754.41;5001133;28;20432;-76
2022/09/14 01:29:01;;;;;;;19.83;16.58;;;;;;;15.97;100.00;99759.72;5002291;28;20030;-76
2022/09/14 01:31:58;;;;;;;15.05;13.35;;;;;;;15.94;100.00;99755.41;5002716;28;20488;-76
2022/09/14 01:34:31;;;;;;;15.63;12.02;;;;;;;16.03;100.00;99747.97;5004658;28;20038;-76
2022/09/14 01:37:11;;;;;;;15.77;13.63;;;;;;;16.03;100.00;99751.47;5007121;28;20446;-75
2022/09/14 01:39:40;;;;;;;16.35;12.82;;;;;;;16.08;100.00;99745.97;5008555;28;20068;-76
2022/09/14 01:42:07;;;;;;;19.48;14.40;;;;;;;16.04;100.00;99739.06;5007692;28;20038;-76
2022/09/14 01:44:36;;;;;;;17.83;11.88;;;;;;;16.13;100.00;99742.19;5003513;28;20550;-76
2022/09/14 01:47:09;;;;;;;16.63;13.68;;;;;;;16.13;100.00;99744.00;5012062;28;20046;-76
2022/09/14 01:49:46;;;;;;;18.70;13.90;;;;;;;16.11;100.00;99737.88;5004969;28;20034;-76
2022/09/14 01:52:20;;;;;;;14.88;13.30;;;;;;;16.10;100.00;99738.81;5008167;28;20042;-76
2022/09/14 01:55:23;;;;;;;18.17;13.00;;;;;;;16.10;100.00;99745.00;5000601;28;20034;-76
2022/09/14 01:58:10;;;;;;;17.30;13.05;;;;;;;16.08;100.00;99738.00;5003116;28;20081;-76
2022/09/14 02:00:40;;;;;;;17.25;12.35;;;;;;;16.04;100.00;99739.06;5003146;28;20034;-75
2022/09/14 02:03:36;;;;;;;15.43;12.70;;;;;;;16.02;100.00;99738.25;5001338;28;20037;-76
2022/09/14 02:06:11;;;;;;;14.40;11.75;;;;;;;16.00;100.00;99736.50;5000772;28;20058;-76
2022/09/14 02:08:37;;;;;;;15.40;12.85;;;;;;;15.99;100.00;99731.25;5006263;28;20033;-76
2022/09/14 02:11:02;;;;;;;16.17;12.80;;;;;;;15.99;100.00;99725.94;5004684;28;20030;-76
2022/09/14 02:13:28;;;;;;;19.58;14.88;;;;;;;15.98;100.00;99734.84;4999609;28;20117;-76
2022/09/14 02:15:54;;;;;;;16.48;13.57;;;;;;;15.98;100.00;99732.19;5001049;28;20038;-76
2022/09/14 02:18:20;;;;;;;14.68;11.02;;;;;;;15.98;100.00;99740.16;5003392;28;20451;-76
2022/09/14 02:20:50;;;;;;;14.90;12.25;;;;;;;16.00;100.00;99728.53;5002581;28;20038;-76
2022/09/14 02:23:17;;;;;;;14.30;12.75;;;;;;;16.00;100.00;99722.34;5001415;28;20042;-76
2022/09/14 02:25:43;;;;;;;16.83;13.73;;;;;;;16.00;100.00;99725.00;5003973;28;20072;-76
2022/09/14 02:28:08;;;;;;;13.30;11.57;;;;;;;15.92;100.00;99732.44;5000701;28;20034;-76
2022/09/14 02:30:54;;;;;;;14.23;12.52;;;;;;;15.97;100.00;99725.13;5000349;28;20034;-76
2022/09/14 02:33:37;;;;;;;14.88;13.30;;;;;;;16.05;100.00;99722.16;5000349;28;20105;-76
2022/09/14 02:36:18;;;;;;;11.60;10.40;;;;;;;16.15;100.00;99718.19;5000618;28;20176;-76
2022/09/14 02:38:53;;;;;;;14.15;12.20;;;;;;;16.19;100.00;99712.69;5002434;28;20527;-76
2022/09/14 02:41:27;;;;;;;14.85;13.25;;;;;;;16.24;100.00;99719.59;5015438;28;20097;-76
2022/09/14 02:44:03;;;;;;;18.65;14.30;;;;;;;16.17;100.00;99709.19;5006073;28;20041;-76
2022/09/14 02:46:46;;;;;;;15.15;12.02;;;;;;;16.21;100.00;99716.13;5004834;28;20069;-76
2022/09/14 02:49:28;;;;;;;16.20;11.63;;;;;;;16.24;100.00;99708.94;5014734;28;20041;-76
2022/09/14 02:52:01;;;;;;;16.60;12.48;;;;;;;16.24;100.00;99709.78;5007660;28;20112;-76
2022/09/14 02:54:37;;;;;;;16.20;13.65;;;;;;;16.26;100.00;99707.06;5008664;28;20041;-76
2022/09/14 02:57:03;;;;;;;15.82;12.95;;;;;;;16.24;100.00;99699.16;5001647;28;20065;-76
2022/09/14 02:59:29;;;;;;;13.32;10.77;;;;;;;16.27;100.00;99703.47;5000969;28;20641;-76
2022/09/14 03:01:55;;;;;;;14.75;11.40;;;;;;;16.31;100.00;99702.41;5003021;28;20038;-76
2022/09/14 03:04:21;;;;;;;19.92;12.95;;;;;;;16.34;100.00;99704.94;5000068;28;20050;-76
2022/09/14 03:06:46;;;;;;;13.15;11.00;;;;;;;16.28;100.00;99706.09;5002739;28;20034;-76
2022/09/14 03:09:11;;;;;;;14.73;11.77;;;;;;;16.24;100.00;99698.28;5000766;28;20542;-75
2022/09/14 03:11:37;;;;;;;19.02;13.50;;;;;;;16.20;100.00;99700.22;5001177;28;20042;-76
2022/09/14 03:14:02;;;;;;;15.77;11.50;;;;;;;16.22;100.00;99709.03;5002332;28;20065;-76
2022/09/14 03:16:27;;;;;;;13.52;11.55;;;;;;;16.21;100.00;99702.81;5000118;28;20038;-76
2022/09/14 03:18:53;;;;;;;19.00;12.40;;;;;;;16.23;100.00;99702.75;5003189;28;20049;-76
2022/09/14 03:21:18;;;;;;;14.40;11.80;;;;;;;16.21;100.00;99705.47;5004733;28;20050;-76
2022/09/14 03:23:51;;;;;;;15.73;10.60;;;;;;;16.18;100.00;99702.94;4996419;28;20053;-76
2022/09/14 03:26:20;;;;;;;16.67;12.60;;;;;;;16.14;100.00;99698.69;5001286;28;20034;-76
2022/09/14 03:28:50;;;;;;;14.43;10.98;;;;;;;16.06;100.00;99706.13;4999972;28;20441;-76
2022/09/14 03:31:15;;;;;;;13.52;9.38;;;;;;;16.16;100.00;99710.13;5001733;28;20056;-76
2022/09/14 03:33:40;;;;;;;13.35;11.63;;;;;;;16.25;100.00;99710.69;5001162;28;20109;-76
2022/09/14 03:36:14;;;;;;;16.85;11.43;;;;;;;16.24;100.00;99706.28;4999885;28;20144;-75
2022/09/14 03:38:48;;;;;;;13.68;10.38;;;;;;;16.17;100.00;99703.88;5003287;28;20063;-75
2022/09/14 03:41:14;;;;;;;13.70;12.10;;;;;;;16.21;100.00;99704.59;4996779;28;20030;-76
2022/09/14 03:43:41;;;;;;;15.20;13.10;;;;;;;16.25;100.00;99700.03;5005682;28;20041;-76
2022/09/14 03:46:08;;;;;;;15.32;11.45;;;;;;;16.24;100.00;99698.28;4999892;28;20042;-75
2022/09/14 03:48:33;;;;;;;13.52;10.00;;;;;;;16.13;100.00;99698.75;5010373;28;20034;-76
2022/09/14 03:51:00;;;;;;;13.75;10.27;;;;;;;16.07;100.00;99691.88;5009322;28;20044;-76
2022/09/14 03:53:26;;;;;;;14.52;9.30;;;;;;;16.07;100.00;99694.53;5004537;28;20488;-76
2022/09/14 03:55:52;;;;;;;12.52;10.02;;;;;;;16.08;99.48;99696.25;5003718;28;20038;-76
2022/09/14 03:58:17;;;;;;;15.75;10.80;;;;;;;16.09;99.28;99694.50;5002543;28;20100;-76
2022/09/14 04:00:42;;;;;;;10.57;8.90;;;;;;;16.08;99.84;99692.75;5000099;28;20038;-75
2022/09/14 04:03:07;;;;;;;12.00;9.43;;;;;;;16.10;100.00;99691.75;5008644;28;20034;-76
2022/09/14 04:05:33;;;;;;;11.98;9.05;;;;;;;16.15;100.00;99680.91;5002552;28;20121;-76
2022/09/14 04:07:58;;;;;;;11.68;9.07;;;;;;;16.16;100.00;99679.97;5000878;28;20042;-76
2022/09/14 04:10:24;;;;;;;10.88;6.95;;;;;;;16.25;99.51;99673.41;5001223;28;20088;-76
2022/09/14 04:12:49;;;;;;;13.13;10.10;;;;;;;16.30;98.24;99674.09;4997025;28;20069;-76
2022/09/14 04:15:15;;;;;;;10.30;7.78;;;;;;;16.31;97.55;99667.81;5002380;28;20145;-76
2022/09/14 04:17:40;;;;;;;9.50;8.43;;;;;;;16.22;97.53;99669.09;4999571;28;20042;-76
2022/09/14 04:20:06;;;;;;;13.50;8.88;;;;;;;16.21;97.23;99668.19;5002630;28;20069;-76
2022/09/14 04:22:32;;;;;;;13.50;8.98;;;;;;;16.28;96.33;99670.59;5010501;28;20037;-76
2022/09/14 04:24:58;;;;;;;12.25;8.88;;;;;;;16.31;96.22;99663.34;5011678;28;20069;-76
2022/09/14 04:27:23;;;;;;;10.77;8.38;;;;;;;16.27;96.50;99663.53;5012021;28;20034;-76
2022/09/14 04:29:49;;;;;;;10.30;8.40;;;;;;;16.33;96.77;99660.63;5008860;28;20042;-76
2022/09/14 04:32:15;;;;;;;9.73;8.73;;;;;;;16.38;96.23;99669.28;5004405;28;20037;-76
2022/09/14 04:34:40;;;;;;;11.88;7.57;;;;;;;16.41;96.01;99663.81;5012931;28;20034;-76
2022/09/14 04:37:06;;;;;;;12.38;9.18;;;;;;;16.48;94.80;99670.59;5004586;28;20045;-76
2022/09/14 04:39:31;;;;;;;8.98;8.07;;;;;;;16.40;95.06;99673.59;5005125;28;20197;-76
2022/09/14 04:41:57;;;;;;;10.38;8.65;;;;;;;16.39;95.61;99669.19;5008005;28;20038;-77
2022/09/14 04:44:22;;;;;;;13.82;7.85;;;;;;;16.42;95.14;99676.19;5007540;28;20061;-76
2022/09/14 04:46:47;;;;;;;10.35;7.13;;;;;;;16.35;95.75;99674.75;5017844;28;20034;-76
2022/09/14 04:49:17;;;;;;;8.93;7.78;;;;;;;16.36;95.75;99674.66;5022994;28;20057;-77
2022/09/14 04:51:43;;;;;;;8.15;7.35;;;;;;;16.42;95.02;99674.38;5019571;28;20034;-77
2022/09/14 04:54:11;;;;;;;8.20;6.85;;;;;;;16.37;95.46;99679.06;5017260;28;20041;-76
2022/09/14 04:56:37;;;;;;;10.82;7.88;;;;;;;16.38;95.60;99677.28;5017417;28;20053;-77
2022/09/14 04:59:03;;;;;;;8.63;7.70;;;;;;;16.50;94.81;99671.38;5011297;28;20493;-76
2022/09/14 05:01:32;;;;;;;8.95;7.68;;;;;;;16.55;94.42;99679.19;5019095;28;20124;-76
2022/09/14 05:03:57;;;;;;;12.95;10.77;;;;;;;16.52;94.85;99680.19;5013722;28;20061;-76
2022/09/14 05:06:26;;;;;;;11.80;9.65;;;;;;;16.52;95.63;99677.50;5012330;28;20046;-76
2022/09/14 05:08:53;;;;;;;14.60;9.10;;;;;;;16.61;94.43;99671.78;5007538;28;20069;-76
2022/09/14 05:11:23;;;;;;;14.85;10.65;;;;;;;16.52;94.15;99663.34;5005845;28;20017;-76
2022/09/14 05:13:49;;;;;;;13.60;8.13;;;;;;;16.44;94.95;99675.19;5002418;28;20046;-76
2022/09/14 05:16:16;;;;;;;16.77;8.68;;;;;;;16.46;95.31;99663.63;5001396;28;20087;-76
2022/09/14 05:18:43;;;;;;;13.98;9.73;;;;;;;16.39;94.71;99665.69;5003269;28;20042;-76
2022/09/14 05:21:10;;;;;;;11.20;9.85;;;;;;;16.31;96.35;99668.66;5013662;28;20025;-75
2022/09/14 05:23:36;;;;;;;11.95;9.10;;;;;;;16.31;96.74;99666.00;5001948;28;20046;-76
2022/09/14 05:26:03;;;;;;;11.85;9.13;;;;;;;16.38;95.79;99658.63;5003440;28;20036;-76
2022/09/14 05:28:29;;;;;;;10.65;7.50;;;;;;;16.34;95.57;99659.69;5003072;28;20104;-76
2022/09/14 05:30:54;;;;;;;9.93;6.97;;;;;;;16.28;94.45;99655.50;5003570;28;20070;-76
2022/09/14 05:33:20;;;;;;;8.75;6.90;;;;;;;16.32;93.05;99662.44;5004943;28;20042;-76
2022/09/14 05:35:47;;;;;;;10.00;7.18;;;;;;;16.37;92.77;99655.09;5005835;28;20041;-76
2022/09/14 05:38:13;;;;;;;10.18;6.72;;;;;;;16.34;92.84;99651.69;5005751;28;20038;-76
2022/09/14 05:40:39;;;;;;;9.63;7.65;;;;;;;16.40;92.36;99646.97;5004375;28;20589;-75
2022/09/14 05:43:04;;;;;;;11.20;7.47;;;;;;;16.37;92.32;99655.09;5004579;28;20122;-76
2022/09/14 05:45:30;;;;;;;7.72;6.15;;;;;;;16.44;91.76;99645.88;5005946;28;20068;-76
2022/09/14 05:47:59;;;;;;;14.45;8.07;;;;;;;16.43;91.41;99641.50;5005558;28;20030;-76
2022/09/14 05:50:24;;;;;;;7.45;6.63;;;;;;;16.41;91.69;99645.19;5002293;28;20117;-76
2022/09/14 05:52:50;;;;;;;15.10;7.53;;;;;;;16.42;91.39;99639.75;5007920;28;20057;-76
2022/09/14 05:55:15;;;;;;;12.07;8.52;;;;;;;16.51;92.05;99633.19;5012390;28;20042;-75
2022/09/14 05:57:40;;;;;;;16.58;11.73;;;;;;;16.63;91.88;99639.75;5003894;28;20089;-76
2022/09/14 06:00:07;;;;;;;14.70;9.80;;;;;;;16.79;91.33;99642.59;5011064;28;20045;-76
2022/09/14 06:02:37;;;;;;;10.13;8.97;;;;;;;16.90;90.80;99645.66;5008120;28;20520;-77
2022/09/14 06:05:12;;;;;;;14.07;11.13;;;;;;;17.00;90.18;99638.97;5004114;28;20122;-76
2022/09/14 06:07:51;;;;;;;16.52;12.00;;;;;;;17.04;90.14;99629.00;5004714;28;20034;-76
2022/09/14 06:10:20;;;;;;;15.85;10.60;;;;;;;17.23;88.88;99637.00;5003740;28;20048;-76
2022/09/14 06:12:46;;;;;;;13.10;10.27;;;;;;;17.23;88.80;99632.53;5002812;28;20094;-75
2022/09/14 06:15:11;;;;;;;13.57;9.80;;;;;;;17.15;89.04;99628.50;5004552;28;20535;-76
2022/09/14 06:17:36;;;;;;;11.50;8.43;;;;;;;17.02;90.37;99636.22;5001757;28;20038;-76
2022/09/14 06:20:04;;;;;;;13.00;9.07;;;;;;;17.04;90.09;99637.88;5008530;28;20038;-76
2022/09/14 06:22:31;;;;;;;11.40;8.63;;;;;;;16.99;89.92;99631.88;5009213;28;20044;-76
2022/09/14 06:24:56;;;;;;;11.13;9.38;;;;;;;17.02;90.44;99634.41;5003576;28;20489;-76
2022/09/14 06:27:22;;;;;;;11.52;8.75;;;;;;;17.13;89.66;99636.56;5002741;28;20036;-76
2022/09/14 06:29:51;;;;;;;12.10;8.40;;;;;;;17.11;89.27;99627.78;5003163;28;20038;-76
2022/09/14 06:32:17;;;;;;;10.02;8.68;;;;;;;17.16;90.08;99638.22;5001475;28;20046;-76
2022/09/14 06:34:43;;;;;;;9.85;7.53;;;;;;;17.30;89.13;99628.63;5003688;28;20049;-76
2022/09/14 06:37:08;;;;;;;9.18;7.82;;;;;;;17.42;87.68;99636.97;5003179;28;20034;-76
2022/09/14 06:39:33;;;;;;;12.60;8.68;;;;;;;17.58;86.88;99643.31;5002917;28;20045;-76
2022/09/14 06:41:58;;;;;;;13.23;8.30;;;;;;;17.61;84.94;99636.97;5003871;28;20115;-76
2022/09/14 06:44:27;;;;;;;11.52;8.80;;;;;;;17.50;85.61;99640.13;4999241;28;20034;-76
2022/09/14 06:46:52;;;;;;;10.77;8.45;;;;;;;17.64;85.79;99636.81;5003258;28;20091;-76
2022/09/14 06:49:21;;;;;;;10.90;7.63;;;;;;;17.76;84.55;99638.84;5002645;28;20113;-76
2022/09/14 06:51:47;;;;;;;11.80;7.93;;;;;;;17.79;84.22;99632.47;5004074;28;20480;-76
2022/09/14 06:54:14;;;;;;;9.93;8.68;;;;;;;17.85;83.12;99638.44;5002030;28;20038;-76
2022/09/14 06:56:41;;;;;;;13.02;7.40;;;;;;;17.84;83.59;99636.72;5004767;28;20037;-77
2022/09/14 06:59:09;;;;;;;11.15;8.10;;;;;;;17.81;83.18;99628.81;5001730;28;20892;-76
2022/09/14 07:01:35;;;;;;;9.18;6.10;;;;;;;17.77;82.52;99635.25;5003023;28;20061;-76
2022/09/14 07:04:00;;;;;;;12.50;6.28;;;;;;;17.79;80.15;99640.50;5003483;28;20497;-76
2022/09/14 07:06:29;;;;;;;7.60;5.95;;;;;;;17.84;80.03;99644.72;5000831;28;20030;-76
2022/09/14 07:08:54;;;;;;;10.60;5.60;;;;;;;17.88;79.81;99635.59;5004566;28;20038;-77
2022/09/14 07:11:24;;;;;;;9.80;6.10;;;;;;;17.89;77.01;99642.69;5009381;28;20057;-76
2022/09/14 07:13:51;;;;;;;9.88;6.43;;;;;;;17.96;78.05;99638.72;5003427;28;20085;-76
2022/09/14 07:16:17;;;;;;;12.20;6.60;;;;;;;18.14;77.50;99636.06;5003076;28;20503;-76
2022/09/14 07:18:42;;;;;;;10.88;6.47;;;;;;;18.29;75.72;99637.09;5006219;28;20068;-76
2022/09/14 07:21:13;;;;;;;9.60;6.35;;;;;;;18.34;74.06;99635.06;5012537;28;20053;-76
2022/09/14 07:23:40;;;;;;;10.00;5.22;;;;;;;18.34;73.73;99637.72;5003288;28;20065;-76
2022/09/14 07:26:26;;;;;;;5.90;4.60;;;;;;;18.35;73.51;99634.09;5003236;28;20034;-76
2022/09/14 07:28:57;;;;;;;7.60;5.35;;;;;;;18.45;73.37;99646.03;5002502;28;20030;-77
2022/09/14 07:31:32;;;;;;;9.68;5.32;;;;;;;18.48;71.23;99645.88;5000052;28;20125;-76
2022/09/14 07:34:00;;;;;;;5.07;4.55;;;;;;;18.41;69.96;99652.47;5001777;28;20043;-76
2022/09/14 07:36:26;;;;;;;6.15;5.00;;;;;;;18.23;71.68;99646.25;5001269;28;20091;-76
2022/09/14 07:38:52;;;;;;;9.98;5.28;;;;;;;18.36;72.37;99642.00;5002880;28;20137;-76
2022/09/14 07:41:25;;;;;;;9.75;4.90;;;;;;;18.52;71.45;99641.22;5003604;28;20496;-76
2022/09/14 07:43:52;;;;;;;6.55;4.57;;;;;;;18.59;70.94;99629.25;5001507;28;20073;-76
2022/09/14 07:46:19;;;;;;;9.77;4.80;;;;;;;18.62;69.58;99632.63;5002025;28;20087;-76
2022/09/14 07:48:44;;;;;;;6.97;4.65;;;;;;;18.56;67.83;99642.78;5002715;28;20037;-76
2022/09/14 07:51:10;;;;;;;5.13;4.63;;;;;;;18.49;68.95;99641.38;5005230;28;20459;-76
2022/09/14 07:53:37;;;;;;;9.07;4.80;;;;;;;18.44;67.53;99638.09;5005463;28;20088;-76
2022/09/14 07:56:05;;;;;;;12.07;5.68;;;;;;;18.35;66.28;99634.09;4997995;28;20081;-76
2022/09/14 07:58:30;;;;;;;7.05;5.20;;;;;;;18.46;67.01;99637.06;5005342;28;20038;-76
2022/09/14 08:01:08;;;;;;;7.63;5.10;;;;;;;18.79;66.82;99631.75;5005061;28;20038;-76
2022/09/14 08:03:37;;;;;;;8.82;5.50;;;;;;;19.10;66.23;99629.19;5011319;28;20037;-75
2022/09/14 08:06:17;;;;;;;6.03;4.65;;;;;;;19.27;63.54;99631.78;5005722;28;20070;-76
2022/09/14 08:08:45;;;;;;;12.95;5.60;;;;;;;19.13;63.31;99631.72;5003997;28;20050;-76
2022/09/14 08:11:14;;;;;;;5.90;4.95;;;;;;;19.24;64.35;99629.28;5006295;28;20065;-76
2022/09/14 08:13:49;;;;;;;8.70;5.28;;;;;;;19.23;61.70;99633.78;5007240;28;20049;-76
2022/09/14 08:16:15;;;;;;;7.07;5.38;;;;;;;19.07;61.85;99624.88;5017252;28;20393;-76
2022/09/14 08:18:40;;;;;;;6.63;5.25;;;;;;;19.23;61.77;99623.09;5008208;28;20048;-76
2022/09/14 08:21:09;;;;;;;10.65;5.50;;;;;;;19.45;61.73;99632.56;5010140;28;20049;-76
2022/09/14 08:23:35;;;;;;;9.63;5.15;;;;;;;19.52;59.58;99631.28;5004240;28;20146;-76
2022/09/14 08:26:05;;;;;;;9.23;5.45;;;;;;;19.63;60.79;99625.31;5006938;28;20042;-76
2022/09/14 08:28:30;;;;;;;7.70;4.80;;;;;;;19.68;60.39;99628.59;5004139;28;20104;-76
2022/09/14 08:31:10;;;;;;;5.97;5.38;;;;;;;19.63;58.84;99626.16;5005354;28;20038;-76
2022/09/14 08:33:39;;;;;;;8.95;4.78;;;;;;;19.72;59.55;99629.28;5006698;28;20046;-76
2022/09/14 08:36:07;;;;;;;6.18;5.07;;;;;;;19.69;60.21;99623.16;5014139;28;20037;-76
2022/09/14 08:38:32;;;;;;;8.07;4.40;;;;;;;19.76;60.40;99626.34;5016088;28;20104;-76
2022/09/14 08:41:07;;;;;;;5.47;4.63;;;;;;;19.80;58.42;99618.97;5018578;28;20125;-76
2022/09/14 08:43:32;;;;;;;7.53;4.68;;;;;;;19.64;58.01;99619.84;5015631;28;20128;-76
2022/09/14 08:46:03;;;;;;;5.47;4.63;;;;;;;19.44;57.87;99620.13;5017836;28;20129;-75
2022/09/14 08:48:45;;;;;;;6.45;4.63;;;;;;;19.38;58.18;99617.81;5015574;28;20452;-76
2022/09/14 08:51:10;;;;;;;5.85;4.90;;;;;;;19.56;59.19;99627.44;5014511;28;20084;-76
2022/09/14 08:53:39;;;;;;;5.28;4.63;;;;;;;19.58;58.84;99622.03;5010618;28;20041;-76
2022/09/14 08:56:14;;;;;;;6.75;4.72;;;;;;;19.63;58.20;99622.63;5004986;28;20066;-76
2022/09/14 08:58:51;;;;;;;7.47;4.82;;;;;;;19.73;58.07;99620.28;5003989;28;20085;-76
2022/09/14 09:01:25;;;;;;;5.47;4.95;;;;;;;20.04;56.87;99617.53;5002280;28;20046;-76
2022/09/14 09:04:06;;;;;;;6.65;5.55;;;;;;;20.33;57.23;99620.25;5003838;28;20046;-76
2022/09/14 09:07:12;;;;;;;5.47;4.45;;;;;;;20.52;54.16;99610.16;5002728;28;20038;-76
2022/09/14 09:09:49;;;;;;;7.05;5.18;;;;;;;20.24;55.67;99607.44;5005537;28;20046;-76
2022/09/14 09:12:20;;;;;;;5.32;4.82;;;;;;;20.44;55.95;99611.59;5002924;28;20062;-76
2022/09/14 09:14:48;;;;;;;6.63;5.15;;;;;;;20.63;56.52;99600.59;5004066;28;20046;-76
2022/09/14 09:17:45;;;;;;;7.55;5.80;;;;;;;21.08;54.84;99606.69;5002721;28;20048;-76
2022/09/14 09:20:22;;;;;;;8.00;5.38;;;;;;;21.23;55.05;99594.97;5012194;28;20116;-76
2022/09/14 09:23:12;;;;;;;6.03;5.53;;;;;;;20.96;53.64;99603.84;5006447;28;20073;-76
2022/09/14 09:25:50;;;;;;;10.75;4.85;;;;;;;20.90;54.96;99598.84;5004969;28;20046;-76
2022/09/14 09:28:17;;;;;;;5.30;4.80;;;;;;;20.76;55.00;99597.06;5011150;28;20037;-76
2022/09/14 09:30:44;;;;;;;5.78;4.95;;;;;;;20.68;56.11;99595.81;5002663;28;20038;-76
2022/09/14 09:33:20;;;;;;;6.93;4.55;;;;;;;20.65;55.02;99590.66;5019711;28;20026;-76
2022/09/14 09:36:01;;;;;;;5.18;4.40;;;;;;;20.66;54.86;99589.69;5020676;28;20030;-76
2022/09/14 09:38:29;;;;;;;7.55;6.10;;;;;;;20.79;55.16;99590.63;5004175;28;20038;-76
2022/09/14 09:41:11;;;;;;;8.88;5.82;;;;;;;20.96;54.35;99579.72;5001498;28;20513;-76
2022/09/14 09:43:59;;;;;;;8.63;5.57;;;;;;;21.05;53.99;99583.59;5009547;28;20233;-76
2022/09/14 09:46:25;;;;;;;9.25;5.85;;;;;;;21.25;54.95;99587.69;5007527;28;20069;-76
2022/09/14 09:48:51;;;;;;;8.85;5.47;;;;;;;21.49;54.43;99584.38;5005488;28;20140;-76
2022/09/14 09:51:22;;;;;;;7.00;6.30;;;;;;;21.74;53.51;99584.44;5006512;28;20147;-76
2022/09/14 09:54:06;;;;;;;10.70;6.13;;;;;;;21.90;51.61;99584.25;5016126;28;20046;-76
2022/09/14 09:56:35;;;;;;;7.13;5.30;;;;;;;21.60;53.13;99581.84;5003418;28;20508;-75
2022/09/14 09:59:01;;;;;;;8.75;5.82;;;;;;;21.62;52.75;99585.28;5007486;28;20045;-76
2022/09/14 10:01:33;;;;;;;6.43;5.78;;;;;;;21.67;53.37;99585.84;5014374;28;20042;-76
2022/09/14 10:04:19;;;;;;;7.85;5.80;;;;;;;21.51;52.26;99577.06;5011854;28;20034;-76
2022/09/14 10:06:48;;;;;;;7.07;4.38;;;;;;;21.28;53.37;99581.25;5005519;28;20087;-76
2022/09/14 10:09:26;;;;;;;7.18;4.78;;;;;;;21.28;53.70;99574.06;5002253;28;20041;-76
2022/09/14 10:12:00;;;;;;;9.63;5.63;;;;;;;21.18;54.28;99570.25;5006464;28;20121;-76
2022/09/14 10:14:32;;;;;;;5.10;4.40;;;;;;;21.22;53.75;99566.41;5009117;28;20034;-77
2022/09/14 10:17:16;;;;;;;9.55;5.95;;;;;;;21.29;52.95;99562.34;5011023;28;20042;-76
2022/09/14 10:19:51;;;;;;;7.32;5.07;;;;;;;21.32;52.89;99563.97;4992522;28;20030;-75
2022/09/14 10:22:38;;;;;;;;;;;;;;;;;;;;;
2022/09/14 10:25:25;;;;;;;7.45;4.53;;;;;;;21.08;53.74;99564.63;5013993;28;20034;-76
2022/09/14 10:27:53;;;;;;;5.93;5.03;;;;;;;21.12;53.47;99565.31;5002188;28;20053;-77
2022/09/14 10:30:21;;;;;;;7.25;5.38;;;;;;;21.08;53.90;99559.25;5013804;28;20037;-76
2022/09/14 10:32:58;;;;;;;5.15;4.60;;;;;;;21.00;52.99;99558.91;5013906;28;20136;-76
2022/09/14 10:35:36;;;;;;;8.40;4.82;;;;;;;20.89;54.35;99562.28;5015690;28;20038;-76
2022/09/14 10:38:04;;;;;;;7.30;4.70;;;;;;;20.51;54.39;99565.56;5008287;28;20029;-76
2022/09/14 10:40:36;;;;;;;6.68;4.32;;;;;;;20.44;55.53;99566.88;5007132;28;20042;-76
2022/09/14 10:43:15;;;;;;;8.70;5.53;;;;;;;20.45;55.64;99565.91;5013785;28;20030;-77
2022/09/14 10:45:51;;;;;;;9.23;4.63;;;;;;;20.57;55.47;99557.16;5019645;28;20052;-76
2022/09/14 10:48:35;;;;;;;6.13;5.32;;;;;;;20.62;54.08;99554.19;5012350;28;20042;-76
2022/09/14 10:51:09;;;;;;;9.32;4.55;;;;;;;20.54;54.06;99554.66;5014427;28;20487;-76
2022/09/14 10:53:54;;;;;;;7.25;4.43;;;;;;;20.61;55.36;99554.25;5008634;28;20041;-76
2022/09/14 10:56:32;;;;;;;7.40;4.60;;;;;;;20.81;54.96;99556.53;5009122;28;20378;-76
2022/09/14 10:59:09;;;;;;;6.78;4.80;;;;;;;20.75;55.17;99564.97;5003348;28;20129;-76
2022/09/14 11:01:49;;;;;;;5.78;4.05;;;;;;;20.65;55.75;99566.53;5002670;28;20045;-76
2022/09/14 11:04:48;;;;;;;4.88;3.92;;;;;;;20.61;54.28;99565.84;5010057;28;20034;-76
2022/09/14 11:07:45;;;;;;;7.68;4.30;;;;;;;20.33;55.63;99563.97;5003585;28;20459;-76
2022/09/14 11:10:34;;;;;;;5.75;4.78;;;;;;;20.24;56.71;99570.78;5004401;28;20506;-76
2022/09/14 11:13:35;;;;;;;7.57;4.93;;;;;;;20.20;56.32;99561.22;5002728;28;20030;-76
2022/09/14 11:16:39;;;;;;;7.15;3.90;;;;;;;20.08;57.27;99567.31;5004888;28;20046;-76
2022/09/14 11:19:21;;;;;;;5.35;4.00;;;;;;;20.04;57.89;99544.34;5004234;28;20560;-76
2022/09/14 11:22:04;;;;;;;6.95;4.45;;;;;;;20.02;59.88;99554.31;5005934;28;20041;-77
2022/09/14 11:24:45;;;;;;;5.18;4.63;;;;;;;20.06;60.34;99554.00;5005882;28;20033;-76
2022/09/14 11:27:30;;;;;;;5.00;4.40;;;;;;;20.04;60.20;99550.59;5007699;28;20125;-76
2022/09/14 11:30:01;;;;;;;8.80;4.22;;;;;;;19.96;62.00;99552.84;5006990;28;20049;-76
2022/09/14 11:32:49;;;;;;;4.80;3.70;;;;;;;19.78;62.44;99545.91;5006854;28;20034;-76
2022/09/14 11:35:20;;;;;;;4.72;3.88;;;;;;;19.64;61.96;99552.06;5013177;28;20033;-76
2022/09/14 11:37:59;;;;;;;8.18;4.25;;;;;;;19.54;62.18;99545.53;5018040;28;20044;-76
2022/09/14 11:40:33;;;;;;;6.18;3.95;;;;;;;19.52;61.78;99548.31;5008837;28;20526;-77
2022/09/14 11:43:25;;;;;;;6.70;4.43;;;;;;;19.48;63.31;99549.44;5012711;28;20037;-77